VIA022 SVVA-SVMC
Flight info
| Callsign | VIA022 |
|---|---|
| Flight time | 0h 49m |
| Altitude | 32000 |
| Route | ESBES1 PBL UW52 MAU B553 DAKAS DAKAS1 |
| Aircraft | A20N/M-SDE2E3FGHIRWXY/LB1 |
Departure
| Time | 2026-04-28 08:04 |
|---|---|
| Airport | Arturo Michelena International Airport (SVVA) |
Arrival
| Time | 2026-04-28 08:54 |
|---|---|
| Airport | La Chinita International Airport (SVMC) |
| Time | Latitude | Longitude | Altitude | Speed | Heading |
|---|---|---|---|---|---|
| 2026-04-28 07:44 | 10.15290 | -67.91924 | 1441 ft | 0 kts | 93° |
| 2026-04-28 07:53 | 10.15290 | -67.91934 | 1441 ft | 2 kts | 103° |
| 2026-04-28 07:54 | 10.15296 | -67.91949 | 1441 ft | 2 kts | 120° |
| 2026-04-28 07:54 | 10.15305 | -67.91960 | 1441 ft | 2 kts | 137° |
| 2026-04-28 07:54 | 10.15317 | -67.91969 | 1441 ft | 2 kts | 154° |
| 2026-04-28 07:54 | 10.15331 | -67.91975 | 1441 ft | 2 kts | 171° |
| 2026-04-28 07:55 | 10.15341 | -67.91975 | 1441 ft | 0 kts | 181° |
| 2026-04-28 07:55 | 10.15347 | -67.91975 | 1441 ft | 0 kts | 183° |
| 2026-04-28 07:57 | 10.15346 | -67.91975 | 1441 ft | 1 kts | 183° |
| 2026-04-28 07:57 | 10.15322 | -67.91976 | 1441 ft | 5 kts | 182° |
| 2026-04-28 07:57 | 10.15274 | -67.91977 | 1441 ft | 7 kts | 186° |
| 2026-04-28 07:58 | 10.15235 | -67.92009 | 1441 ft | 8 kts | 242° |
| 2026-04-28 07:58 | 10.15186 | -67.92039 | 1441 ft | 9 kts | 185° |
| 2026-04-28 07:58 | 10.15141 | -67.92042 | 1441 ft | 5 kts | 188° |
| 2026-04-28 07:58 | 10.15115 | -67.92072 | 1441 ft | 6 kts | 251° |
| 2026-04-28 07:59 | 10.15110 | -67.92120 | 1441 ft | 7 kts | 272° |
| 2026-04-28 07:59 | 10.15113 | -67.92176 | 1442 ft | 8 kts | 272° |
| 2026-04-28 07:59 | 10.15109 | -67.92236 | 1442 ft | 9 kts | 246° |
| 2026-04-28 07:59 | 10.15045 | -67.92265 | 1442 ft | 11 kts | 183° |
| 2026-04-28 08:00 | 10.14972 | -67.92291 | 1442 ft | 12 kts | 242° |
| 2026-04-28 08:00 | 10.14961 | -67.92375 | 1442 ft | 12 kts | 271° |
| 2026-04-28 08:00 | 10.14965 | -67.92465 | 1443 ft | 12 kts | 272° |
| 2026-04-28 08:00 | 10.14969 | -67.92557 | 1443 ft | 13 kts | 272° |
| 2026-04-28 08:01 | 10.14973 | -67.92654 | 1444 ft | 14 kts | 273° |
| 2026-04-28 08:01 | 10.14978 | -67.92774 | 1444 ft | 19 kts | 273° |
| 2026-04-28 08:01 | 10.14986 | -67.92924 | 1445 ft | 23 kts | 273° |
| 2026-04-28 08:01 | 10.14994 | -67.93097 | 1446 ft | 25 kts | 272° |
| 2026-04-28 08:02 | 10.15003 | -67.93270 | 1446 ft | 23 kts | 274° |
| 2026-04-28 08:02 | 10.15010 | -67.93434 | 1447 ft | 22 kts | 273° |
| 2026-04-28 08:02 | 10.15018 | -67.93588 | 1448 ft | 21 kts | 273° |
| 2026-04-28 08:02 | 10.15026 | -67.93733 | 1449 ft | 20 kts | 273° |
| 2026-04-28 08:03 | 10.15036 | -67.93872 | 1451 ft | 19 kts | 275° |
| 2026-04-28 08:03 | 10.15049 | -67.94002 | 1452 ft | 18 kts | 277° |
| 2026-04-28 08:03 | 10.15049 | -67.94062 | 1453 ft | 3 kts | 150° |
| 2026-04-28 08:03 | 10.15038 | -67.94007 | 1452 ft | 22 kts | 92° |
| 2026-04-28 08:04 | 10.15020 | -67.93584 | 1449 ft | 96 kts | 93° |
| 2026-04-28 08:04 | 10.14972 | -67.92676 | 1444 ft | 157 kts | 92° |
| 2026-04-28 08:04 | 10.14905 | -67.91463 | 1726 ft | 181 kts | 91° |
| 2026-04-28 08:04 | 10.14845 | -67.90205 | 2408 ft | 180 kts | 92° |
| 2026-04-28 08:05 | 10.14789 | -67.88886 | 2841 ft | 199 kts | 91° |
| 2026-04-28 08:05 | 10.14782 | -67.87418 | 3336 ft | 216 kts | 80° |
| 2026-04-28 08:05 | 10.15424 | -67.86011 | 3820 ft | 235 kts | 48° |
| 2026-04-28 08:05 | 10.16851 | -67.85110 | 4303 ft | 254 kts | 16° |
| 2026-04-28 08:06 | 10.18657 | -67.85182 | 4788 ft | 266 kts | 340° |
| 2026-04-28 08:06 | 10.20136 | -67.86285 | 5272 ft | 275 kts | 308° |
| 2026-04-28 08:06 | 10.21207 | -67.87933 | 5769 ft | 281 kts | 301° |
| 2026-04-28 08:06 | 10.22197 | -67.89655 | 6251 ft | 286 kts | 300° |
| 2026-04-28 08:07 | 10.23203 | -67.91406 | 6734 ft | 289 kts | 300° |
| 2026-04-28 08:07 | 10.24235 | -67.93156 | 7210 ft | 290 kts | 301° |
| 2026-04-28 08:07 | 10.25289 | -67.94910 | 7690 ft | 291 kts | 301° |
| 2026-04-28 08:07 | 10.26351 | -67.96658 | 8167 ft | 292 kts | 301° |
| 2026-04-28 08:08 | 10.27424 | -67.98415 | 8645 ft | 294 kts | 301° |
| 2026-04-28 08:08 | 10.28500 | -68.00173 | 9116 ft | 296 kts | 301° |
| 2026-04-28 08:08 | 10.29599 | -68.01968 | 9596 ft | 298 kts | 302° |
| 2026-04-28 08:08 | 10.30683 | -68.03737 | 10066 ft | 300 kts | 302° |
| 2026-04-28 08:09 | 10.31882 | -68.05489 | 10529 ft | 301 kts | 316° |
| 2026-04-28 08:09 | 10.33629 | -68.06574 | 10994 ft | 298 kts | 346° |
| 2026-04-28 08:09 | 10.35699 | -68.06855 | 11471 ft | 306 kts | 358° |
| 2026-04-28 08:09 | 10.37902 | -68.06986 | 11791 ft | 323 kts | 358° |
| 2026-04-28 08:10 | 10.40209 | -68.07137 | 12105 ft | 339 kts | 358° |
| 2026-04-28 08:10 | 10.42582 | -68.07318 | 12646 ft | 346 kts | 356° |
| 2026-04-28 08:10 | 10.44978 | -68.07674 | 13297 ft | 350 kts | 342° |
| 2026-04-28 08:10 | 10.47062 | -68.08916 | 13941 ft | 352 kts | 316° |
| 2026-04-28 08:11 | 10.48455 | -68.10926 | 14574 ft | 352 kts | 291° |
| 2026-04-28 08:11 | 10.48969 | -68.13367 | 15189 ft | 353 kts | 272° |
| 2026-04-28 08:11 | 10.49096 | -68.15847 | 15741 ft | 357 kts | 272° |
| 2026-04-28 08:11 | 10.49227 | -68.18369 | 16295 ft | 361 kts | 272° |
| 2026-04-28 08:12 | 10.49375 | -68.20918 | 16862 ft | 364 kts | 272° |
| 2026-04-28 08:12 | 10.49535 | -68.23485 | 17419 ft | 367 kts | 273° |
| 2026-04-28 08:12 | 10.49704 | -68.26078 | 17980 ft | 369 kts | 273° |
| 2026-04-28 08:12 | 10.49878 | -68.28672 | 18515 ft | 372 kts | 273° |
| 2026-04-28 08:13 | 10.50055 | -68.31295 | 19043 ft | 375 kts | 273° |
| 2026-04-28 08:13 | 10.50236 | -68.33952 | 19556 ft | 377 kts | 273° |
| 2026-04-28 08:13 | 10.50414 | -68.36584 | 20040 ft | 380 kts | 272° |
| 2026-04-28 08:13 | 10.50597 | -68.39286 | 20535 ft | 383 kts | 272° |
| 2026-04-28 08:14 | 10.50781 | -68.41986 | 21025 ft | 385 kts | 272° |
| 2026-04-28 08:14 | 10.50967 | -68.44715 | 21518 ft | 387 kts | 272° |
| 2026-04-28 08:14 | 10.51150 | -68.47433 | 21992 ft | 390 kts | 272° |
| 2026-04-28 08:14 | 10.51334 | -68.50159 | 22451 ft | 392 kts | 272° |
| 2026-04-28 08:15 | 10.51524 | -68.52951 | 22924 ft | 395 kts | 272° |
| 2026-04-28 08:15 | 10.51712 | -68.55727 | 23365 ft | 398 kts | 272° |
| 2026-04-28 08:15 | 10.51900 | -68.58533 | 23807 ft | 400 kts | 272° |
| 2026-04-28 08:15 | 10.52089 | -68.61338 | 24251 ft | 403 kts | 272° |
| 2026-04-28 08:16 | 10.52283 | -68.64204 | 24692 ft | 406 kts | 272° |
| 2026-04-28 08:16 | 10.52475 | -68.67064 | 25098 ft | 409 kts | 271° |
| 2026-04-28 08:16 | 10.52668 | -68.69968 | 25507 ft | 412 kts | 271° |
| 2026-04-28 08:16 | 10.52862 | -68.72876 | 25908 ft | 415 kts | 271° |
| 2026-04-28 08:17 | 10.53057 | -68.75796 | 26296 ft | 418 kts | 271° |
| 2026-04-28 08:17 | 10.53252 | -68.78720 | 26672 ft | 421 kts | 271° |
| 2026-04-28 08:17 | 10.53452 | -68.81716 | 27044 ft | 424 kts | 271° |
| 2026-04-28 08:17 | 10.53651 | -68.84706 | 27402 ft | 427 kts | 271° |
| 2026-04-28 08:18 | 10.53848 | -68.87688 | 27761 ft | 430 kts | 271° |
| 2026-04-28 08:18 | 10.54049 | -68.90717 | 28128 ft | 432 kts | 271° |
| 2026-04-28 08:18 | 10.54253 | -68.93795 | 28499 ft | 434 kts | 271° |
| 2026-04-28 08:18 | 10.54464 | -68.96863 | 28846 ft | 437 kts | 272° |
| 2026-04-28 08:19 | 10.54708 | -68.99961 | 29300 ft | 437 kts | 272° |
| 2026-04-28 08:19 | 10.54964 | -69.03092 | 29879 ft | 433 kts | 272° |
| 2026-04-28 08:19 | 10.55214 | -69.06164 | 30474 ft | 429 kts | 272° |
| 2026-04-28 08:19 | 10.55460 | -69.09206 | 30998 ft | 426 kts | 272° |
| 2026-04-28 08:20 | 10.55706 | -69.12264 | 31459 ft | 425 kts | 272° |
| 2026-04-28 08:20 | 10.55948 | -69.15295 | 31865 ft | 424 kts | 272° |
| 2026-04-28 08:20 | 10.56189 | -69.18309 | 31983 ft | 425 kts | 272° |
| 2026-04-28 08:20 | 10.56427 | -69.21308 | 31986 ft | 424 kts | 272° |
| 2026-04-28 08:21 | 10.56904 | -69.27330 | 31988 ft | 423 kts | 272° |
| 2026-04-28 08:21 | 10.57380 | -69.33349 | 31993 ft | 424 kts | 272° |
| 2026-04-28 08:22 | 10.57856 | -69.39388 | 32001 ft | 424 kts | 272° |
| 2026-04-28 08:22 | 10.58331 | -69.45436 | 32010 ft | 424 kts | 272° |
| 2026-04-28 08:23 | 10.58801 | -69.51443 | 32016 ft | 423 kts | 272° |
| 2026-04-28 08:23 | 10.59272 | -69.57497 | 32013 ft | 423 kts | 272° |
| 2026-04-28 08:24 | 10.59741 | -69.63508 | 32012 ft | 423 kts | 272° |
| 2026-04-28 08:24 | 10.60211 | -69.69561 | 32014 ft | 423 kts | 272° |
| 2026-04-28 08:25 | 10.60637 | -69.75568 | 32013 ft | 423 kts | 272° |
| 2026-04-28 08:26 | 10.61237 | -69.84637 | 32010 ft | 423 kts | 272° |
| 2026-04-28 08:26 | 10.61635 | -69.90640 | 32010 ft | 423 kts | 271° |
| 2026-04-28 08:27 | 10.62033 | -69.96670 | 32007 ft | 423 kts | 272° |
| 2026-04-28 08:27 | 10.62431 | -70.02709 | 32005 ft | 423 kts | 272° |
| 2026-04-28 08:28 | 10.62829 | -70.08727 | 32000 ft | 423 kts | 272° |
| 2026-04-28 08:28 | 10.63220 | -70.14667 | 32000 ft | 423 kts | 272° |
| 2026-04-28 08:29 | 10.63609 | -70.20609 | 31999 ft | 423 kts | 272° |
| 2026-04-28 08:29 | 10.63999 | -70.26552 | 31995 ft | 422 kts | 271° |
| 2026-04-28 08:30 | 10.64384 | -70.32511 | 31992 ft | 423 kts | 271° |
| 2026-04-28 08:30 | 10.64771 | -70.38461 | 31992 ft | 422 kts | 271° |
| 2026-04-28 08:31 | 10.65150 | -70.44395 | 31981 ft | 423 kts | 271° |
| 2026-04-28 08:31 | 10.65337 | -70.47382 | 31521 ft | 424 kts | 271° |
| 2026-04-28 08:31 | 10.65524 | -70.50362 | 31015 ft | 422 kts | 271° |
| 2026-04-28 08:31 | 10.65710 | -70.53316 | 30511 ft | 419 kts | 271° |
| 2026-04-28 08:32 | 10.65892 | -70.56245 | 30012 ft | 420 kts | 271° |
| 2026-04-28 08:32 | 10.66075 | -70.59225 | 29507 ft | 424 kts | 271° |
| 2026-04-28 08:32 | 10.66259 | -70.62221 | 29003 ft | 427 kts | 271° |
| 2026-04-28 08:32 | 10.66443 | -70.65200 | 28509 ft | 429 kts | 270° |
| 2026-04-28 08:33 | 10.66627 | -70.68221 | 28008 ft | 426 kts | 271° |
| 2026-04-28 08:33 | 10.66811 | -70.71216 | 27510 ft | 423 kts | 271° |
| 2026-04-28 08:33 | 10.66993 | -70.74195 | 27011 ft | 420 kts | 271° |
| 2026-04-28 08:33 | 10.67171 | -70.77099 | 26523 ft | 416 kts | 271° |
| 2026-04-28 08:34 | 10.67351 | -70.80025 | 26027 ft | 413 kts | 271° |
| 2026-04-28 08:34 | 10.67529 | -70.82944 | 25527 ft | 410 kts | 271° |
| 2026-04-28 08:34 | 10.67705 | -70.85825 | 24967 ft | 409 kts | 271° |
| 2026-04-28 08:34 | 10.67878 | -70.88689 | 24338 ft | 405 kts | 271° |
| 2026-04-28 08:35 | 10.68049 | -70.91469 | 23730 ft | 393 kts | 271° |
| 2026-04-28 08:35 | 10.68217 | -70.94210 | 23120 ft | 381 kts | 271° |
| 2026-04-28 08:35 | 10.68377 | -70.96843 | 22515 ft | 370 kts | 271° |
| 2026-04-28 08:35 | 10.68533 | -70.99416 | 21922 ft | 359 kts | 271° |
| 2026-04-28 08:36 | 10.68689 | -71.01890 | 21345 ft | 352 kts | 274° |
| 2026-04-28 08:36 | 10.69133 | -71.04308 | 20758 ft | 349 kts | 285° |
| 2026-04-28 08:36 | 10.70025 | -71.06599 | 20168 ft | 346 kts | 295° |
| 2026-04-28 08:36 | 10.71123 | -71.08738 | 19589 ft | 343 kts | 297° |
| 2026-04-28 08:37 | 10.72240 | -71.10840 | 19006 ft | 339 kts | 297° |
| 2026-04-28 08:37 | 10.73363 | -71.12955 | 18415 ft | 336 kts | 297° |
| 2026-04-28 08:37 | 10.74450 | -71.15022 | 17833 ft | 332 kts | 297° |
| 2026-04-28 08:37 | 10.75530 | -71.17089 | 17246 ft | 327 kts | 297° |
| 2026-04-28 08:38 | 10.76587 | -71.19120 | 16665 ft | 324 kts | 297° |
| 2026-04-28 08:38 | 10.77632 | -71.21130 | 16075 ft | 320 kts | 297° |
| 2026-04-28 08:38 | 10.78655 | -71.23096 | 15491 ft | 317 kts | 297° |
| 2026-04-28 08:38 | 10.79680 | -71.25071 | 14899 ft | 313 kts | 296° |
| 2026-04-28 08:39 | 10.80367 | -71.27119 | 14291 ft | 308 kts | 274° |
| 2026-04-28 08:39 | 10.80167 | -71.29247 | 13707 ft | 302 kts | 250° |
| 2026-04-28 08:39 | 10.79326 | -71.31180 | 13127 ft | 299 kts | 243° |
| 2026-04-28 08:39 | 10.78421 | -71.33050 | 12539 ft | 297 kts | 243° |
| 2026-04-28 08:40 | 10.77519 | -71.34934 | 11946 ft | 295 kts | 243° |
| 2026-04-28 08:40 | 10.76639 | -71.36803 | 11351 ft | 293 kts | 243° |
| 2026-04-28 08:40 | 10.75765 | -71.38678 | 10755 ft | 291 kts | 244° |
| 2026-04-28 08:40 | 10.74907 | -71.40528 | 10163 ft | 290 kts | 244° |
| 2026-04-28 08:41 | 10.74061 | -71.42358 | 9573 ft | 288 kts | 244° |
| 2026-04-28 08:41 | 10.73218 | -71.44186 | 8979 ft | 286 kts | 244° |
| 2026-04-28 08:41 | 10.72371 | -71.46021 | 8406 ft | 283 kts | 244° |
| 2026-04-28 08:41 | 10.71552 | -71.47796 | 7932 ft | 277 kts | 244° |
| 2026-04-28 08:42 | 10.70733 | -71.49572 | 7453 ft | 276 kts | 244° |
| 2026-04-28 08:42 | 10.69919 | -71.51333 | 6974 ft | 275 kts | 244° |
| 2026-04-28 08:42 | 10.69102 | -71.53077 | 6496 ft | 274 kts | 240° |
| 2026-04-28 08:42 | 10.68054 | -71.54712 | 6006 ft | 273 kts | 229° |
| 2026-04-28 08:43 | 10.66751 | -71.56071 | 5528 ft | 270 kts | 218° |
| 2026-04-28 08:43 | 10.65240 | -71.57189 | 5044 ft | 267 kts | 212° |
| 2026-04-28 08:43 | 10.63720 | -71.58281 | 4559 ft | 265 kts | 210° |
| 2026-04-28 08:43 | 10.62080 | -71.59120 | 4160 ft | 261 kts | 201° |
| 2026-04-28 08:44 | 10.60389 | -71.59815 | 4043 ft | 259 kts | 199° |
| 2026-04-28 08:44 | 10.58748 | -71.60460 | 4023 ft | 244 kts | 199° |
| 2026-04-28 08:44 | 10.57218 | -71.61063 | 4014 ft | 228 kts | 199° |
| 2026-04-28 08:44 | 10.55761 | -71.61643 | 4015 ft | 221 kts | 199° |
| 2026-04-28 08:45 | 10.54339 | -71.62210 | 4011 ft | 216 kts | 199° |
| 2026-04-28 08:45 | 10.52967 | -71.62756 | 4007 ft | 208 kts | 199° |
| 2026-04-28 08:45 | 10.51603 | -71.63301 | 4055 ft | 206 kts | 199° |
| 2026-04-28 08:45 | 10.50265 | -71.63833 | 4097 ft | 210 kts | 199° |
| 2026-04-28 08:46 | 10.48885 | -71.64368 | 3849 ft | 206 kts | 199° |
| 2026-04-28 08:46 | 10.47559 | -71.64883 | 3603 ft | 201 kts | 199° |
| 2026-04-28 08:46 | 10.46266 | -71.65392 | 3356 ft | 196 kts | 200° |
| 2026-04-28 08:46 | 10.44994 | -71.65900 | 3105 ft | 191 kts | 199° |
| 2026-04-28 08:47 | 10.43770 | -71.66396 | 2858 ft | 187 kts | 199° |
| 2026-04-28 08:47 | 10.42577 | -71.66887 | 2611 ft | 183 kts | 200° |
| 2026-04-28 08:47 | 10.41399 | -71.67364 | 2356 ft | 180 kts | 200° |
| 2026-04-28 08:47 | 10.40229 | -71.67837 | 2111 ft | 178 kts | 199° |
| 2026-04-28 08:48 | 10.39103 | -71.68367 | 1929 ft | 176 kts | 218° |
| 2026-04-28 08:48 | 10.38586 | -71.69379 | 1872 ft | 160 kts | 280° |
| 2026-04-28 08:48 | 10.39010 | -71.70364 | 1936 ft | 153 kts | 311° |
| 2026-04-28 08:48 | 10.39664 | -71.71233 | 1930 ft | 155 kts | 311° |
| 2026-04-28 08:49 | 10.40299 | -71.72132 | 1927 ft | 155 kts | 309° |
| 2026-04-28 08:49 | 10.40895 | -71.73051 | 1933 ft | 156 kts | 307° |
| 2026-04-28 08:49 | 10.41474 | -71.73995 | 1923 ft | 157 kts | 306° |
| 2026-04-28 08:49 | 10.42031 | -71.74933 | 1913 ft | 153 kts | 305° |
| 2026-04-28 08:50 | 10.42581 | -71.75877 | 1916 ft | 153 kts | 304° |
| 2026-04-28 08:50 | 10.43121 | -71.76810 | 1917 ft | 153 kts | 304° |
| 2026-04-28 08:50 | 10.43772 | -71.77645 | 1897 ft | 146 kts | 336° |
| 2026-04-28 08:50 | 10.44711 | -71.77713 | 1941 ft | 138 kts | 17° |
| 2026-04-28 08:51 | 10.45618 | -71.77334 | 1927 ft | 136 kts | 27° |
| 2026-04-28 08:51 | 10.46465 | -71.76910 | 1886 ft | 135 kts | 26° |
| 2026-04-28 08:51 | 10.47306 | -71.76518 | 1729 ft | 133 kts | 24° |
| 2026-04-28 08:51 | 10.48171 | -71.76141 | 1553 ft | 133 kts | 24° |
| 2026-04-28 08:52 | 10.49026 | -71.75777 | 1383 ft | 134 kts | 24° |
| 2026-04-28 08:52 | 10.49901 | -71.75407 | 1211 ft | 134 kts | 24° |
| 2026-04-28 08:52 | 10.50767 | -71.75040 | 1034 ft | 134 kts | 24° |
| 2026-04-28 08:52 | 10.51636 | -71.74670 | 864 ft | 136 kts | 24° |
| 2026-04-28 08:53 | 10.52513 | -71.74297 | 685 ft | 136 kts | 24° |
| 2026-04-28 08:53 | 10.53391 | -71.73920 | 506 ft | 136 kts | 24° |
| 2026-04-28 08:53 | 10.54265 | -71.73547 | 337 ft | 136 kts | 23° |
| 2026-04-28 08:53 | 10.55146 | -71.73172 | 261 ft | 132 kts | 23° |
| 2026-04-28 08:54 | 10.55920 | -71.72850 | 238 ft | 105 kts | 24° |
| 2026-04-28 08:54 | 10.56360 | -71.72659 | 237 ft | 42 kts | 34° |
| 2026-04-28 08:54 | 10.56483 | -71.72521 | 237 ft | 0 kts | 51° |